createdAt,value
2023-03-26T00:00:40.792Z,6.47
2023-03-26T00:03:13.993Z,5.43
2023-03-26T00:05:41.112Z,6.55
2023-03-26T00:08:15.914Z,6.18
2023-03-26T00:10:44.171Z,7.75
2023-03-26T00:13:17.857Z,4.43
2023-03-26T00:15:44.604Z,9.30
2023-03-26T00:18:26.912Z,10.15
2023-03-26T00:20:53.663Z,8.45
2023-03-26T00:23:26.886Z,8.90
2023-03-26T00:25:54.721Z,9.30
2023-03-26T00:28:24.264Z,8.10
2023-03-26T00:31:05.937Z,4.55
2023-03-26T00:33:33.020Z,6.13
2023-03-26T00:36:10.977Z,6.40
2023-03-26T00:38:39.370Z,5.82
2023-03-26T00:41:23.952Z,4.63
2023-03-26T00:44:02.928Z,6.47
2023-03-26T00:46:31.701Z,7.90
2023-03-26T00:49:05.940Z,7.43
2023-03-26T00:51:33.990Z,6.57
2023-03-26T00:54:14.966Z,5.38
2023-03-26T00:56:41.829Z,10.93
2023-03-26T00:59:09.260Z,10.45
2023-03-26T01:01:42.994Z,8.15
2023-03-26T01:04:27.232Z,8.75
2023-03-26T01:06:55.737Z,8.57
2023-03-26T01:09:37.090Z,10.95
2023-03-26T01:12:07.242Z,7.70
2023-03-26T01:14:34.277Z,7.60
2023-03-26T01:17:09.947Z,5.72
2023-03-26T01:19:51.027Z,10.90
2023-03-26T01:22:28.975Z,9.52
2023-03-26T01:24:57.025Z,7.85
2023-03-26T01:27:55.035Z,6.18
2023-03-26T01:30:34.880Z,14.43
2023-03-26T01:33:36.201Z,16.25
2023-03-26T01:36:32.396Z,8.48
2023-03-26T01:39:39.060Z,15.38
2023-03-26T01:42:21.990Z,8.07
2023-03-26T01:45:06.030Z,11.10
2023-03-26T01:47:42.041Z,15.30
2023-03-26T01:50:09.621Z,11.52
2023-03-26T01:52:36.491Z,14.27
2023-03-26T01:55:11.019Z,10.88
2023-03-26T01:58:04.207Z,14.43
2023-03-26T02:00:47.047Z,28.38
2023-03-26T02:04:02.013Z,25.35
2023-03-26T02:06:58.640Z,19.38
2023-03-26T02:09:37.039Z,15.57
2023-03-26T02:12:06.349Z,13.13
2023-03-26T02:14:43.091Z,15.27
2023-03-26T02:17:31.147Z,14.25
2023-03-26T02:20:14.721Z,16.75
2023-03-26T02:22:52.107Z,19.98
2023-03-26T02:25:27.188Z,33.10
2023-03-26T02:27:54.425Z,26.10
2023-03-26T02:30:32.072Z,22.83
2023-03-26T02:32:59.962Z,26.30
2023-03-26T02:35:36.202Z,21.85
2023-03-26T02:38:03.055Z,30.80
2023-03-26T02:40:36.153Z,15.07
2023-03-26T02:43:02.995Z,16.80
2023-03-26T02:45:29.779Z,14.90
2023-03-26T02:48:07.124Z,22.95
2023-03-26T02:50:36.760Z,16.90
2023-03-26T02:53:03.561Z,23.92
2023-03-26T02:55:37.114Z,12.30
2023-03-26T02:58:04.346Z,10.57
2023-03-26T03:00:38.137Z,14.57
2023-03-26T03:03:16.199Z,37.03
2023-03-26T03:05:43.283Z,23.60
2023-03-26T03:08:17.232Z,21.35
2023-03-26T03:10:44.140Z,18.23
2023-03-26T03:13:17.191Z,15.73
2023-03-26T03:15:44.244Z,17.75
2023-03-26T03:18:17.161Z,21.02
2023-03-26T03:20:44.656Z,21.50
2023-03-26T03:23:18.130Z,19.70
2023-03-26T03:25:44.968Z,30.92
2023-03-26T03:28:18.271Z,25.23
2023-03-26T03:30:45.828Z,22.40
2023-03-26T03:33:19.225Z,23.25
2023-03-26T03:35:48.935Z,18.92
2023-03-26T03:38:24.233Z,20.83
2023-03-26T03:40:51.193Z,18.23
2023-03-26T03:43:25.200Z,10.15
2023-03-26T03:45:52.177Z,13.63
2023-03-26T03:48:19.180Z,15.45
2023-03-26T03:50:52.269Z,14.10
2023-03-26T03:53:26.329Z,10.38
2023-03-26T03:56:01.216Z,11.20
2023-03-26T03:58:28.359Z,7.75
2023-03-26T04:01:09.199Z,9.93
2023-03-26T04:03:38.873Z,7.95
2023-03-26T04:06:14.242Z,8.80
2023-03-26T04:08:41.252Z,14.65
2023-03-26T04:11:14.230Z,8.45
2023-03-26T04:13:41.176Z,6.32
2023-03-26T04:16:16.242Z,6.57
2023-03-26T04:18:54.296Z,5.07
2023-03-26T04:21:21.162Z,5.65
2023-03-26T04:23:48.030Z,6.65
2023-03-26T04:26:25.246Z,4.63
2023-03-26T04:28:55.590Z,4.25
2023-03-26T04:31:37.333Z,4.43
2023-03-26T04:34:33.253Z,4.65
2023-03-26T04:37:02.494Z,4.57
2023-03-26T04:39:29.496Z,4.05
2023-03-26T04:42:04.292Z,3.80
2023-03-26T04:44:31.882Z,4.65
2023-03-26T04:47:15.325Z,4.88
2023-03-26T04:49:42.931Z,3.95
2023-03-26T04:52:12.673Z,3.70
2023-03-26T04:54:47.299Z,3.72
2023-03-26T04:57:29.302Z,3.00
2023-03-26T04:59:56.333Z,3.42
2023-03-26T05:02:29.363Z,2.83
2023-03-26T05:05:03.352Z,3.45
2023-03-26T05:07:30.290Z,3.53
2023-03-26T05:10:04.366Z,3.92
2023-03-26T05:12:34.986Z,2.38
2023-03-26T05:15:01.744Z,3.58
2023-03-26T05:17:37.353Z,3.83
2023-03-26T05:20:11.339Z,4.53
2023-03-26T05:22:45.357Z,4.00
2023-03-26T05:25:12.236Z,3.50
2023-03-26T05:27:46.393Z,4.40
2023-03-26T05:30:19.049Z,3.75
2023-03-26T05:32:55.400Z,6.55
2023-03-26T05:35:22.340Z,5.97
2023-03-26T05:37:58.377Z,5.80
2023-03-26T05:40:31.377Z,4.85
2023-03-26T05:43:02.914Z,4.97
2023-03-26T05:45:36.412Z,4.60
2023-03-26T05:48:09.530Z,4.45
2023-03-26T05:50:36.293Z,7.57
2023-03-26T05:53:09.371Z,8.40
2023-03-26T05:55:42.400Z,6.68
2023-03-26T05:58:09.122Z,6.93
2023-03-26T06:00:44.382Z,8.90
2023-03-26T06:03:16.562Z,8.27
2023-03-26T06:05:50.380Z,5.70
2023-03-26T06:08:23.402Z,6.93
2023-03-26T06:10:53.207Z,7.95
2023-03-26T06:13:26.503Z,6.38
2023-03-26T06:15:53.719Z,6.15
2023-03-26T06:18:27.446Z,5.32
2023-03-26T06:21:00.464Z,5.00
2023-03-26T06:23:27.327Z,6.22
2023-03-26T06:26:01.487Z,6.72
2023-03-26T06:28:33.930Z,6.03
2023-03-26T06:31:10.465Z,9.18
2023-03-26T06:33:37.479Z,5.55
2023-03-26T06:36:11.461Z,7.18
2023-03-26T06:38:38.332Z,6.53
2023-03-26T06:41:15.476Z,7.10
2023-03-26T06:43:42.296Z,6.75
2023-03-26T06:46:16.557Z,6.95
2023-03-26T06:48:43.628Z,8.27
2023-03-26T06:51:17.495Z,7.38
2023-03-26T06:53:50.517Z,6.65
2023-03-26T06:56:17.296Z,6.13
2023-03-26T06:58:44.155Z,7.97
2023-03-26T07:01:17.604Z,7.15
2023-03-26T07:03:44.502Z,7.47
2023-03-26T07:06:17.544Z,5.55
2023-03-26T07:08:50.522Z,5.82
2023-03-26T07:11:19.495Z,7.45
2023-03-26T07:13:54.533Z,4.43
2023-03-26T07:16:28.650Z,5.82
2023-03-26T07:19:09.787Z,7.75
2023-03-26T07:21:43.532Z,5.75
2023-03-26T07:24:11.596Z,5.75
2023-03-26T07:27:13.549Z,6.70
2023-03-26T07:29:49.067Z,4.40
2023-03-26T07:32:52.607Z,5.32
2023-03-26T07:35:30.406Z,7.32
2023-03-26T07:38:32.583Z,5.10
2023-03-26T07:41:14.398Z,5.18
2023-03-26T07:44:07.607Z,5.03
2023-03-26T07:46:42.566Z,4.65
2023-03-26T07:49:12.670Z,5.00
2023-03-26T07:51:46.592Z,6.18
2023-03-26T07:54:20.766Z,8.88
2023-03-26T07:57:10.680Z,15.55
2023-03-26T07:59:43.858Z,12.70
2023-03-26T08:02:26.733Z,8.00
2023-03-26T08:05:20.762Z,7.43
2023-03-26T08:08:02.629Z,9.23
2023-03-26T08:11:08.879Z,11.02
2023-03-26T08:14:10.631Z,11.13
2023-03-26T08:16:56.373Z,10.02
2023-03-26T08:19:47.752Z,11.32
2023-03-26T08:22:27.436Z,7.85
2023-03-26T08:25:31.649Z,7.57
2023-03-26T08:28:33.686Z,7.95
2023-03-26T08:31:03.085Z,11.73
2023-03-26T08:33:31.068Z,6.90
2023-03-26T08:36:04.755Z,6.00
2023-03-26T08:38:37.644Z,11.25
2023-03-26T08:41:23.644Z,6.10
2023-03-26T08:44:27.687Z,6.85
2023-03-26T08:47:06.551Z,6.80
2023-03-26T08:50:26.706Z,8.95
2023-03-26T08:53:11.699Z,8.40
2023-03-26T08:56:16.906Z,6.25
2023-03-26T08:59:14.693Z,5.93
2023-03-26T09:01:48.291Z,6.30
2023-03-26T09:04:50.709Z,5.43
2023-03-26T09:07:49.726Z,9.45
2023-03-26T09:10:51.715Z,10.60
2023-03-26T09:13:43.611Z,19.47
2023-03-26T09:16:22.751Z,23.67
2023-03-26T09:19:04.688Z,22.83
2023-03-26T09:21:56.791Z,26.38
2023-03-26T09:25:22.038Z,20.92
2023-03-26T09:28:38.789Z,22.48
2023-03-26T09:31:22.010Z,25.17
2023-03-26T09:34:25.792Z,22.17
2023-03-26T09:37:12.760Z,23.38
2023-03-26T09:40:11.793Z,19.23
2023-03-26T09:42:48.662Z,17.05
2023-03-26T09:45:35.770Z,21.05
2023-03-26T09:48:37.093Z,16.58
2023-03-26T09:51:27.652Z,21.60
2023-03-26T09:54:19.702Z,13.40
2023-03-26T09:57:09.845Z,14.02
2023-03-26T10:00:07.505Z,24.65
2023-03-26T10:03:19.849Z,20.90
2023-03-26T10:06:13.855Z,20.02
2023-03-26T10:08:58.814Z,23.35
2023-03-26T10:11:58.339Z,23.50
2023-03-26T10:14:43.843Z,19.35
2023-03-26T10:17:31.902Z,13.73
2023-03-26T10:20:15.848Z,15.02
2023-03-26T10:23:13.832Z,15.23
2023-03-26T10:26:27.797Z,22.55
2023-03-26T10:29:05.820Z,17.20
2023-03-26T10:31:45.839Z,17.30
2023-03-26T10:34:37.533Z,12.93
2023-03-26T10:37:23.828Z,15.82
2023-03-26T10:40:30.869Z,9.90
2023-03-26T10:43:01.865Z,10.15
2023-03-26T10:45:44.839Z,14.52
2023-03-26T10:48:43.121Z,14.25
2023-03-26T10:51:22.850Z,10.80
2023-03-26T10:54:02.837Z,16.88
2023-03-26T10:56:42.904Z,15.13
2023-03-26T10:59:13.678Z,16.67
2023-03-26T11:01:49.939Z,14.55
2023-03-26T11:04:52.884Z,10.88
2023-03-26T11:10:32.097Z,17.65
2023-03-26T11:16:04.641Z,12.50
2023-03-26T11:19:05.167Z,17.58
2023-03-26T11:22:03.908Z,18.65
2023-03-26T11:24:46.898Z,11.20
2023-03-26T11:27:40.678Z,16.38
2023-03-26T11:30:35.933Z,15.88
2023-03-26T11:33:11.327Z,13.27
2023-03-26T11:35:54.025Z,10.30
2023-03-26T11:38:37.625Z,16.58
2023-03-26T11:41:27.011Z,15.23
2023-03-26T11:44:02.911Z,14.45
2023-03-26T11:46:40.040Z,10.48
2023-03-26T11:49:18.211Z,12.48
2023-03-26T11:51:54.951Z,14.93
2023-03-26T11:54:28.958Z,13.23
2023-03-26T11:57:08.469Z,15.85
2023-03-26T11:59:57.657Z,16.25
2023-03-26T12:02:46.019Z,14.32
2023-03-26T12:05:27.342Z,13.18
2023-03-26T12:08:05.962Z,13.63
2023-03-26T12:10:44.942Z,9.93
2023-03-26T12:16:08.258Z,13.00
2023-03-26T12:18:41.995Z,11.13
2023-03-26T12:21:19.648Z,22.05
2023-03-26T12:24:11.092Z,13.65
2023-03-26T12:26:44.849Z,12.80
2023-03-26T12:29:24.081Z,16.27
2023-03-26T12:32:01.042Z,13.30
2023-03-26T12:34:42.000Z,13.75
2023-03-26T12:37:38.736Z,10.88
2023-03-26T12:40:41.045Z,13.00
2023-03-26T12:44:46.501Z,11.93
2023-03-26T12:47:56.265Z,11.85
2023-03-26T12:49:33.092Z,13.35
2023-03-26T12:52:36.057Z,17.00
2023-03-26T12:55:23.600Z,12.80
2023-03-26T12:58:25.040Z,12.10
2023-03-26T13:01:18.074Z,11.43
2023-03-26T13:04:06.146Z,15.15
2023-03-26T13:07:00.868Z,12.80
2023-03-26T13:10:00.228Z,11.65
2023-03-26T13:12:38.216Z,12.43
2023-03-26T13:15:29.103Z,8.35
2023-03-26T13:18:32.872Z,13.15
2023-03-26T13:21:23.090Z,8.43
2023-03-26T13:24:08.145Z,13.32
2023-03-26T13:27:09.079Z,10.95
2023-03-26T13:30:09.532Z,12.45
2023-03-26T13:32:55.114Z,8.50
2023-03-26T13:35:29.652Z,10.75
2023-03-26T13:38:18.193Z,12.27
2023-03-26T13:41:09.570Z,12.65
2023-03-26T13:43:58.166Z,11.75
2023-03-26T13:46:47.159Z,11.25
2023-03-26T13:49:23.120Z,13.57
2023-03-26T13:52:04.192Z,14.60
2023-03-26T13:54:46.160Z,13.68
2023-03-26T13:57:35.180Z,13.13
2023-03-26T14:00:16.405Z,11.88
2023-03-26T14:02:54.317Z,14.20
2023-03-26T14:05:26.978Z,8.68
2023-03-26T14:08:09.263Z,14.68
2023-03-26T14:10:41.204Z,14.27
2023-03-26T14:13:31.221Z,13.25
2023-03-26T14:16:21.636Z,13.10
2023-03-26T14:19:19.338Z,7.82
2023-03-26T14:22:23.442Z,10.63
2023-03-26T14:25:21.210Z,10.45
2023-03-26T14:28:27.235Z,11.75
2023-03-26T14:31:12.495Z,14.18
2023-03-26T14:34:06.223Z,9.00
2023-03-26T14:36:59.230Z,9.85
2023-03-26T14:39:44.812Z,8.05
2023-03-26T14:42:43.271Z,6.70
2023-03-26T14:45:54.260Z,7.82
2023-03-26T14:48:38.260Z,8.93
2023-03-26T14:51:30.254Z,8.25
2023-03-26T14:54:05.645Z,9.55
2023-03-26T14:56:45.296Z,8.60
2023-03-26T14:59:39.270Z,8.48
2023-03-26T15:02:40.325Z,10.25
2023-03-26T15:05:30.281Z,8.40
2023-03-26T15:08:00.137Z,8.70
2023-03-26T15:10:56.465Z,11.60
2023-03-26T15:14:00.941Z,10.00
2023-03-26T15:16:46.339Z,9.57
2023-03-26T15:19:57.290Z,5.95
2023-03-26T15:22:43.075Z,10.20
2023-03-26T15:25:40.322Z,8.90
2023-03-26T15:28:08.164Z,7.68
2023-03-26T15:31:16.354Z,9.27
2023-03-26T15:34:14.029Z,8.07
2023-03-26T15:37:21.317Z,7.72
2023-03-26T15:40:15.342Z,8.07
2023-03-26T15:43:08.378Z,11.07
2023-03-26T15:45:44.445Z,9.10
2023-03-26T15:48:11.726Z,10.33
2023-03-26T15:51:01.335Z,8.15
2023-03-26T15:53:56.453Z,10.90
2023-03-26T15:56:39.413Z,7.65
2023-03-26T15:59:52.377Z,10.48
2023-03-26T16:02:56.708Z,9.40
2023-03-26T16:05:33.045Z,12.40
2023-03-26T16:08:11.337Z,10.93
2023-03-26T16:10:50.492Z,13.77
2023-03-26T16:13:26.538Z,15.65
2023-03-26T16:15:57.051Z,9.02
2023-03-26T16:18:42.368Z,11.30
2023-03-26T16:21:37.095Z,12.98
2023-03-26T16:24:14.414Z,12.52
2023-03-26T16:26:51.404Z,10.05
2023-03-26T16:29:19.565Z,15.35
2023-03-26T16:32:14.625Z,10.88
2023-03-26T16:34:59.728Z,7.95
2023-03-26T16:37:46.396Z,7.40
2023-03-26T16:40:22.519Z,12.15
2023-03-26T16:43:33.573Z,10.70
2023-03-26T16:46:29.012Z,10.02
2023-03-26T16:49:41.475Z,9.65
2023-03-26T16:52:23.506Z,8.85
2023-03-26T16:55:28.715Z,13.57
2023-03-26T16:58:05.629Z,10.95
2023-03-26T17:00:48.454Z,9.95
2023-03-26T17:03:38.572Z,7.35
2023-03-26T17:06:26.654Z,9.57
2023-03-26T17:09:07.186Z,10.02
2023-03-26T17:12:06.689Z,6.90
2023-03-26T17:15:12.571Z,7.88
2023-03-26T17:18:00.065Z,7.90
2023-03-26T17:20:49.490Z,10.80
2023-03-26T17:23:42.557Z,8.40
2023-03-26T17:26:18.591Z,11.05
2023-03-26T17:29:21.826Z,12.55
2023-03-26T17:32:18.494Z,10.75
2023-03-26T17:34:51.515Z,8.98
2023-03-26T17:37:30.794Z,9.00
2023-03-26T17:40:01.125Z,14.10
2023-03-26T17:42:42.507Z,6.05
2023-03-26T17:45:17.514Z,7.40
2023-03-26T17:47:54.914Z,8.30
2023-03-26T17:50:30.857Z,8.48
2023-03-26T17:53:29.497Z,6.60
2023-03-26T17:56:03.156Z,15.75
2023-03-26T17:58:42.574Z,11.15
2023-03-26T18:01:29.277Z,8.25
2023-03-26T18:04:09.527Z,8.93
2023-03-26T18:06:53.569Z,7.03
2023-03-26T18:10:05.609Z,7.18
2023-03-26T18:13:01.560Z,10.77
2023-03-26T18:15:37.492Z,9.40
2023-03-26T18:18:16.566Z,7.43
2023-03-26T18:20:46.944Z,9.30
2023-03-26T18:23:39.599Z,8.00
2023-03-26T18:26:16.851Z,9.15
2023-03-26T18:28:59.624Z,8.15
2023-03-26T18:31:27.030Z,13.85
2023-03-26T18:34:09.888Z,7.28
2023-03-26T18:36:38.479Z,10.82
2023-03-26T18:39:05.392Z,8.55
2023-03-26T18:41:45.598Z,10.80
2023-03-26T18:44:22.599Z,8.80
2023-03-26T18:47:20.575Z,8.07
2023-03-26T18:49:57.929Z,8.10
2023-03-26T18:52:29.002Z,8.43
2023-03-26T18:55:05.789Z,5.80
2023-03-26T18:57:42.935Z,7.72
2023-03-26T19:00:37.737Z,7.68
2023-03-26T19:03:07.852Z,6.38
2023-03-26T19:05:35.786Z,8.52
2023-03-26T19:08:11.771Z,11.23
2023-03-26T19:10:39.028Z,9.75
2023-03-26T19:13:18.968Z,6.90
2023-03-26T19:15:47.713Z,11.00
2023-03-26T19:18:26.657Z,6.22
2023-03-26T19:20:58.184Z,8.10
2023-03-26T19:23:47.704Z,10.27
2023-03-26T19:26:22.323Z,6.22
2023-03-26T19:28:59.652Z,9.85
2023-03-26T19:31:38.776Z,10.18
2023-03-26T19:34:27.663Z,9.35
2023-03-26T19:37:08.975Z,6.93
2023-03-26T19:39:48.751Z,11.70
2023-03-26T19:42:42.837Z,3.97
2023-03-26T19:45:18.502Z,10.48
2023-03-26T19:48:03.506Z,7.50
2023-03-26T19:50:43.411Z,10.50
2023-03-26T19:53:43.994Z,5.63
2023-03-26T19:56:18.675Z,4.85
2023-03-26T19:58:52.772Z,4.68
2023-03-26T20:01:22.775Z,7.80
2023-03-26T20:03:59.842Z,9.27
2023-03-26T20:06:42.437Z,5.25
2023-03-26T20:09:19.064Z,5.15
2023-03-26T20:11:47.017Z,6.47
2023-03-26T20:14:32.089Z,6.80
2023-03-26T20:16:59.329Z,9.23
2023-03-26T20:19:26.591Z,9.18
2023-03-26T20:21:59.758Z,8.30
2023-03-26T20:24:32.257Z,4.18
2023-03-26T20:27:14.781Z,5.47
2023-03-26T20:29:42.306Z,6.47
2023-03-26T20:32:30.096Z,6.90
2023-03-26T20:34:57.717Z,7.22
2023-03-26T20:37:24.694Z,8.18
2023-03-26T20:39:57.818Z,6.57
2023-03-26T20:42:31.127Z,8.57
2023-03-26T20:45:04.788Z,8.27
2023-03-26T20:47:32.323Z,6.38
2023-03-26T20:50:05.804Z,8.48
2023-03-26T20:52:41.970Z,17.65
2023-03-26T20:55:15.695Z,8.75
2023-03-26T20:57:49.820Z,11.48
2023-03-26T21:00:24.260Z,7.63
2023-03-26T21:03:06.915Z,10.55
2023-03-26T21:05:35.060Z,6.30
2023-03-26T21:08:09.097Z,9.68
2023-03-26T21:10:36.086Z,6.43
2023-03-26T21:13:27.122Z,6.60
2023-03-26T21:15:54.514Z,7.57
2023-03-26T21:18:21.849Z,7.68
2023-03-26T21:21:21.578Z,6.43
2023-03-26T21:24:00.299Z,5.25
2023-03-26T21:26:41.837Z,7.55
2023-03-26T21:29:15.888Z,9.03
2023-03-26T21:31:42.880Z,14.60
2023-03-26T21:34:12.384Z,9.80
2023-03-26T21:36:46.839Z,9.70
2023-03-26T21:39:15.358Z,8.88
2023-03-26T21:42:05.399Z,10.02
2023-03-26T21:44:33.536Z,12.95
2023-03-26T21:47:08.545Z,10.05
2023-03-26T21:49:37.377Z,9.27
2023-03-26T21:52:04.765Z,9.55
2023-03-26T21:54:38.868Z,4.22
2023-03-26T21:57:38.782Z,14.18
2023-03-26T22:00:43.053Z,8.48
2023-03-26T22:03:43.238Z,9.20
2023-03-26T22:06:29.904Z,11.98
2023-03-26T22:08:57.273Z,6.40
2023-03-26T22:11:24.076Z,5.28
2023-03-26T22:13:57.927Z,7.93
2023-03-26T22:16:31.997Z,8.02
2023-03-26T22:18:58.887Z,7.78
2023-03-26T22:21:31.995Z,7.25
2023-03-26T22:23:58.804Z,6.97
2023-03-26T22:26:32.952Z,7.15
2023-03-26T22:28:59.882Z,6.07
2023-03-26T22:31:33.016Z,5.93
2023-03-26T22:33:59.836Z,5.53
2023-03-26T22:36:34.021Z,4.53
2023-03-26T22:39:01.807Z,3.85
2023-03-26T22:41:36.005Z,5.68
2023-03-26T22:44:16.778Z,2.75
2023-03-26T22:46:54.972Z,2.33
2023-03-26T22:49:21.838Z,2.60
2023-03-26T22:51:50.134Z,3.22
2023-03-26T22:54:23.975Z,3.42
2023-03-26T22:56:52.320Z,2.60
2023-03-26T22:59:25.954Z,4.07
2023-03-26T23:01:53.214Z,2.38
2023-03-26T23:04:37.021Z,5.28
2023-03-26T23:07:05.294Z,3.72
2023-03-26T23:09:44.024Z,7.55
2023-03-26T23:12:10.818Z,3.67
2023-03-26T23:14:44.050Z,4.00
2023-03-26T23:17:14.750Z,5.20
2023-03-26T23:19:43.846Z,4.57
2023-03-26T23:22:17.091Z,5.07
2023-03-26T23:24:51.015Z,9.73
2023-03-26T23:27:24.057Z,6.00
2023-03-26T23:29:50.902Z,7.00
2023-03-26T23:32:25.260Z,5.47
2023-03-26T23:34:59.049Z,2.95
2023-03-26T23:37:25.804Z,4.55
2023-03-26T23:39:59.041Z,3.80
2023-03-26T23:42:33.075Z,3.92
2023-03-26T23:44:59.926Z,7.20
2023-03-26T23:47:33.171Z,5.78
2023-03-26T23:50:09.099Z,6.68
2023-03-26T23:52:37.597Z,9.88
2023-03-26T23:55:12.116Z,8.10
2023-03-26T23:57:45.099Z,8.15
